Realist — WDH6772 — position and weather

sailwx.info

Track history (hours):
 
Tides and Currents Weather Stations Pressure Air Temp Water Temp Dewpoint Dewpoint Depression Visibility Wind Speed Wind Dir Waves Ship Positions

Realist

Owner: New York Marine Towing, Inc PO Box 444 Montauk, NY 11954, monauk, NY. More information available from US FCC via Universal Licensing System and Coast Guard Vessel Documentation Center.

Last reported at 2018-Jul-20 12:29 UTC. Time now 2018-Jul-20 14:10 UTC.
Position N 38°47' W 076°22'.

Length 26 m; draft 3.5 m.

Type: Towing. MMSI: 367641460.

Date/timePositionNaut miles runAvg speedWind from/ knotsBaromVisibWave heightAir tempDewpointWater temp
2018-Jul-20 12:29N 38°47' W 076°22'0 0.0
2018-Jul-20 11:28N 38°47' W 076°22'1 1.5
2018-Jul-20 10:59N 38°47' W 076°21'0 1.0
2018-Jul-20 10:30N 38°46' W 076°21'0 0.4
2018-Jul-20 10:00N 38°46' W 076°21'0 0.0
2018-Jul-20 07:29N 38°46' W 076°21'0 0.0
2018-Jul-20 06:21N 38°46' W 076°21'0 0.0
2018-Jul-20 06:00N 38°46' W 076°21'0 0.0
2018-Jul-20 05:30N 38°46' W 076°21'0 0.0
2018-Jul-20 04:44N 38°46' W 076°21'0 0.0
2018-Jul-20 04:30N 38°46' W 076°21'0 0.0
2018-Jul-20 03:36N 38°46' W 076°21'1 0.1
2018-Jul-19 16:06N 38°48' W 076°22'0 0.5
2018-Jul-19 16:01N 38°48' W 076°21'1 0.2
2018-Jul-19 12:42N 38°47' W 076°22'0 0.3
2018-Jul-19 12:29N 38°47' W 076°22'0 0.1
2018-Jul-19 12:00N 38°47' W 076°22'1 1.0
2018-Jul-19 11:28N 38°48' W 076°22'1 2.9
2018-Jul-19 11:00N 38°47' W 076°22'1 0.1
2018-Jul-18 16:44N 38°48' W 076°22'0 0.1
2018-Jul-18 14:59N 38°48' W 076°22'1 0.8
2018-Jul-18 13:59N 38°49' W 076°22'0 0.1
2018-Jul-18 12:27N 38°49' W 076°22'1 0.9
2018-Jul-18 11:30N 38°48' W 076°22'2 0.8
2018-Jul-18 09:12N 38°46' W 076°21'0 0.0
2018-Jul-18 02:22N 38°46' W 076°21'0 0.0
2018-Jul-17 23:12N 38°46' W 076°21'0 0.0
2018-Jul-17 22:52N 38°46' W 076°21'1 0.2
2018-Jul-17 15:15N 38°48' W 076°22'0 0.0
2018-Jul-17 13:14N 38°48' W 076°22'0 0.3
2018-Jul-17 11:24N 38°47' W 076°22'1 0.4
2018-Jul-17 07:38N 38°46' W 076°21'0 0.0
2018-Jul-17 07:10N 38°46' W 076°21'0 0.0
2018-Jul-17 01:52N 38°46' W 076°21'2 0.5
2018-Jul-16 21:52N 38°48' W 076°22'0 0.1
2018-Jul-16 20:32N 38°48' W 076°22'0 0.2
2018-Jul-16 18:37N 38°48' W 076°22'0 0.0
2018-Jul-16 18:22N 38°48' W 076°22'0 0.0
2018-Jul-16 12:58N 38°48' W 076°22'0 0.0
2018-Jul-16 12:27N 38°48' W 076°22'1 2.5
2018-Jul-16 12:00N 38°47' W 076°21'0 0.4
2018-Jul-16 11:26N 38°46' W 076°21'0 0.0
2018-Jul-16 11:01N 38°46' W 076°21'0 0.0
2018-Jul-16 10:31N 38°46' W 076°21'0 0.0
2018-Jul-16 10:00N 38°46' W 076°21'0 0.0
2018-Jul-16 09:30N 38°46' W 076°21'0 0.0
2018-Jul-16 09:00N 38°46' W 076°21'0 0.0
2018-Jul-16 08:30N 38°46' W 076°21'0 0.0
2018-Jul-16 08:00N 38°46' W 076°21'0 0.0
2018-Jul-16 07:00N 38°46' W 076°21'0 0.1
2018-Jul-16 06:30N 38°46' W 076°21'0 0.0
2018-Jul-16 05:58N 38°46' W 076°21'0 0.0
2018-Jul-16 04:44N 38°46' W 076°21'0 0.0
2018-Jul-16 04:29N 38°46' W 076°21'0 0.0
2018-Jul-16 03:54N 38°46' W 076°21'0 0.0
2018-Jul-16 02:41N 38°46' W 076°21'0 0.2
2018-Jul-16 02:30N 38°46' W 076°21'0 0.1
2018-Jul-16 01:59N 38°46' W 076°21'0 0.0
2018-Jul-15 15:21N 38°46' W 076°21'0 0.0
2018-Jul-15 11:22N 38°46' W 076°21'0 0.0
2018-Jul-15 10:58N 38°46' W 076°21'0 0.0
2018-Jul-15 10:08N 38°46' W 076°21'0 0.0
2018-Jul-15 09:37N 38°46' W 076°21'0 0.0
2018-Jul-15 09:30N 38°46' W 076°21'0 0.0
2018-Jul-15 09:00N 38°46' W 076°21'0 0.0
2018-Jul-15 07:17N 38°46' W 076°21'0 0.0
2018-Jul-15 06:59N 38°46' W 076°21'0 0.0
2018-Jul-15 06:18N 38°46' W 076°21'0 0.0
2018-Jul-15 05:40N 38°46' W 076°21'0 0.0
2018-Jul-15 05:23N 38°46' W 076°21'0 0.0
2018-Jul-15 04:57N 38°46' W 076°21'0 0.0
2018-Jul-15 03:49N 38°46' W 076°21'0 0.0
2018-Jul-15 03:19N 38°46' W 076°21'4 0.4
2018-Jul-14 16:57N 38°50' W 076°24'2 5.4
2018-Jul-14 16:30N 38°52' W 076°24'3 5.5
2018-Jul-14 16:00N 38°55' W 076°23'3 5.6
2018-Jul-14 15:30N 38°58' W 076°23'8 4.6
2018-Jul-14 13:39N 39°06' W 076°20'1 4.1
2018-Jul-14 13:28N 39°07' W 076°20'2 4.1
2018-Jul-14 12:58N 39°09' W 076°19'2 3.6
2018-Jul-14 12:29N 39°10' W 076°18'2 3.4
2018-Jul-14 12:00N 39°12' W 076°17'2 3.2
2018-Jul-14 11:31N 39°13' W 076°15'2 3.2
2018-Jul-14 11:00N 39°14' W 076°15'2 3.2
2018-Jul-14 10:30N 39°16' W 076°14'2 3.5
2018-Jul-14 10:00N 39°18' W 076°13'2 3.6
2018-Jul-14 09:30N 39°19' W 076°12'2 4.1
2018-Jul-14 08:59N 39°21' W 076°11'3 4.5
2018-Jul-14 08:17N 39°23' W 076°07'1 4.7
2018-Jul-14 07:59N 39°23' W 076°06'2 4.5
2018-Jul-14 07:30N 39°24' W 076°03'2 4.3
2018-Jul-14 07:00N 39°26' W 076°02'2 4.1
2018-Jul-14 06:30N 39°28' W 076°03'2 4.4
2018-Jul-14 06:00N 39°30' W 076°05'2 4.5
2018-Jul-14 05:30N 39°32' W 076°05'1 1.9
2018-Jul-14 05:00N 39°33' W 076°05'0 0.0
2018-Jul-14 04:30N 39°33' W 076°05'1 2.8
2018-Jul-14 04:00N 39°31' W 076°05'3 5.1
2018-Jul-14 03:30N 39°29' W 076°05'3 5.2
2018-Jul-14 03:00N 39°27' W 076°02'3 5.5
2018-Jul-14 02:25N 39°24' W 076°04'4 6.1
2018-Jul-14 01:44N 39°22' W 076°09'2 6.4
2018-Jul-14 01:30N 39°21' W 076°10'18 6.3
2018-Jul-13 22:34N 39°04' W 076°21'3 6.8
2018-Jul-13 22:10N 39°02' W 076°22'1 6.9
2018-Jul-13 22:00N 39°01' W 076°22'3 6.5
2018-Jul-13 21:30N 38°58' W 076°23'3 6.6
2018-Jul-13 21:01N 38°54' W 076°23'3 6.3
2018-Jul-13 20:31N 38°51' W 076°24'3 5.5
2018-Jul-13 20:01N 38°49' W 076°22'2 0.3
2018-Jul-13 13:38N 38°50' W 076°24'1 5.1
2018-Jul-13 13:31N 38°51' W 076°24'2 4.9
2018-Jul-13 13:00N 38°53' W 076°24'2 4.7
2018-Jul-13 12:31N 38°55' W 076°23'2 4.4
2018-Jul-13 12:00N 38°58' W 076°23'2 4.4
2018-Jul-13 11:30N 38°60' W 076°23'2 3.7
2018-Jul-13 11:01N 39°02' W 076°22'2 3.5
2018-Jul-13 10:30N 39°03' W 076°21'2 3.5
2018-Jul-13 10:00N 39°05' W 076°21'2 3.4
2018-Jul-13 09:30N 39°06' W 076°20'2 3.4
2018-Jul-13 09:00N 39°08' W 076°19'2 3.6
2018-Jul-13 08:30N 39°10' W 076°19'3 3.9
2018-Jul-13 07:46N 39°12' W 076°16'1 4.1
2018-Jul-13 07:30N 39°13' W 076°15'2 4.4
2018-Jul-13 07:00N 39°15' W 076°14'2 4.8
2018-Jul-13 06:30N 39°17' W 076°13'3 5.2
2018-Jul-13 05:59N 39°20' W 076°12'7 5.4
2018-Jul-13 04:46N 39°23' W 076°05'2 4.9
2018-Jul-13 04:21N 39°24' W 076°03'2 4.4
2018-Jul-13 04:00N 39°26' W 076°02'2 4.0
2018-Jul-13 03:30N 39°28' W 076°03'2 4.2
2018-Jul-13 03:00N 39°29' W 076°05'2 3.9
2018-Jul-13 02:30N 39°31' W 076°05'2 3.7
2018-Jul-13 02:00N 39°33' W 076°05'0 0.2
2018-Jul-13 01:30N 39°33' W 076°05'0 0.1
2018-Jul-13 01:00N 39°33' W 076°05'0 0.1
2018-Jul-13 00:30N 39°33' W 076°05'0 0.0
2018-Jul-12 23:58N 39°33' W 076°05'0 0.6
2018-Jul-12 23:31N 39°32' W 076°05'3 6.1
2018-Jul-12 23:00N 39°29' W 076°05'3 6.0
2018-Jul-12 22:29N 39°27' W 076°02'25 5.5
2018-Jul-12 18:00N 39°07' W 076°20'3 5.2
2018-Jul-12 17:23N 39°04' W 076°21'2 5.2
2018-Jul-12 16:58N 39°01' W 076°22'2 4.7
2018-Jul-12 16:31N 38°59' W 076°23'3 5.1
2018-Jul-12 16:00N 38°57' W 076°23'2 4.7
2018-Jul-12 15:31N 38°55' W 076°23'2 4.8
2018-Jul-12 15:01N 38°52' W 076°24'5 2.4
2018-Jul-12 13:04N 38°48' W 076°22'0 0.0
2018-Jul-12 13:01N 38°48' W 076°22'0 0.0
2018-Jul-12 12:08N 38°48' W 076°22'2 0.1
2018-Jul-11 17:53N 38°50' W 076°24'2 5.4
2018-Jul-11 17:30N 38°52' W 076°24'3 5.7
2018-Jul-11 17:00N 38°55' W 076°24'3 6.1
2018-Jul-11 16:26N 38°58' W 076°23'3 6.1
2018-Jul-11 15:52N 39°02' W 076°22'5 5.6
2018-Jul-11 15:02N 39°06' W 076°20'0 5.6
2018-Jul-11 15:00N 39°06' W 076°20'3 5.8
2018-Jul-11 14:30N 39°09' W 076°19'7 5.5
2018-Jul-11 13:11N 39°15' W 076°14'1 5.4
2018-Jul-11 12:58N 39°16' W 076°14'3 5.0
2018-Jul-11 12:19N 39°19' W 076°12'2 4.5
2018-Jul-11 11:48N 39°21' W 076°10'2 4.0
2018-Jul-11 11:23N 39°22' W 076°09'2 4.2
2018-Jul-11 10:57N 39°23' W 076°06'2 3.8
2018-Jul-11 10:19N 39°24' W 076°04'1 3.7
2018-Jul-11 10:00N 39°25' W 076°03'2 3.7
2018-Jul-11 09:30N 39°26' W 076°02'2 3.3
2018-Jul-11 09:00N 39°28' W 076°03'2 3.4
2018-Jul-11 08:30N 39°29' W 076°05'2 3.1
2018-Jul-11 08:00N 39°30' W 076°05'2 3.5
2018-Jul-11 07:30N 39°32' W 076°05'1 1.1
2018-Jul-11 07:00N 39°33' W 076°05'0 0.0
2018-Jul-11 06:31N 39°33' W 076°05'2 3.4
2018-Jul-11 06:01N 39°31' W 076°05'2 4.7
2018-Jul-11 05:30N 39°29' W 076°04'3 5.0
2018-Jul-11 05:00N 39°27' W 076°02'3 5.0
2018-Jul-11 04:30N 39°24' W 076°03'2 5.0
2018-Jul-11 04:01N 39°23' W 076°06'2 4.8
2018-Jul-11 03:30N 39°22' W 076°09'5 4.5
2018-Jul-11 02:22N 39°18' W 076°13'2 5.0
2018-Jul-11 02:01N 39°16' W 076°14'7 5.2
2018-Jul-11 00:41N 39°10' W 076°18'6 5.8
2018-Jul-10 23:37N 39°05' W 076°21'1 6.1
2018-Jul-10 23:30N 39°04' W 076°21'3 6.1
2018-Jul-10 22:59N 39°01' W 076°22'3 6.1
2018-Jul-10 22:30N 38°58' W 076°23'3 6.1
2018-Jul-10 22:00N 38°55' W 076°23'3 6.2
2018-Jul-10 21:30N 38°52' W 076°24'8 1.5
2018-Jul-10 16:14N 38°60' W 076°23'2 7.3
2018-Jul-10 16:00N 39°01' W 076°22'4 7.1
2018-Jul-10 15:27N 39°05' W 076°21'3 7.3
2018-Jul-10 15:00N 39°08' W 076°19'6 7.4
2018-Jul-10 14:12N 39°13' W 076°15'4 7.6
2018-Jul-10 13:44N 39°16' W 076°14'2 7.4
2018-Jul-10 13:26N 39°19' W 076°13'  
Track history (hours):
 
Tides and Currents Weather Stations Pressure Air Temp Water Temp Dewpoint Dewpoint Depression Visibility Wind Speed Wind Dir Waves Ship Positions

Realist

Owner: New York Marine Towing, Inc PO Box 444 Montauk, NY 11954, monauk, NY. More information available from US FCC via Universal Licensing System and Coast Guard Vessel Documentation Center.

Last reported at 2018-Jul-20 12:29 UTC. Time now 2018-Jul-20 14:10 UTC.
Position N 38°47' W 076°22'.

Length 26 m; draft 3.5 m.

Type: Towing. MMSI: 367641460.

Date/timePositionNaut miles runAvg speedWind from/ knotsBaromVisibWave heightAir tempDewpointWater temp
2018-Jul-20 12:29N 38°47' W 076°22'0 0.0
2018-Jul-20 11:28N 38°47' W 076°22'1 1.5
2018-Jul-20 10:59N 38°47' W 076°21'0 1.0
2018-Jul-20 10:30N 38°46' W 076°21'0 0.4
2018-Jul-20 10:00N 38°46' W 076°21'0 0.0
2018-Jul-20 07:29N 38°46' W 076°21'0 0.0
2018-Jul-20 06:21N 38°46' W 076°21'0 0.0
2018-Jul-20 06:00N 38°46' W 076°21'0 0.0
2018-Jul-20 05:30N 38°46' W 076°21'0 0.0
2018-Jul-20 04:44N 38°46' W 076°21'0 0.0
2018-Jul-20 04:30N 38°46' W 076°21'0 0.0
2018-Jul-20 03:36N 38°46' W 076°21'1 0.1
2018-Jul-19 16:06N 38°48' W 076°22'0 0.5
2018-Jul-19 16:01N 38°48' W 076°21'1 0.2
2018-Jul-19 12:42N 38°47' W 076°22'0 0.3
2018-Jul-19 12:29N 38°47' W 076°22'0 0.1
2018-Jul-19 12:00N 38°47' W 076°22'1 1.0
2018-Jul-19 11:28N 38°48' W 076°22'1 2.9
2018-Jul-19 11:00N 38°47' W 076°22'1 0.1
2018-Jul-18 16:44N 38°48' W 076°22'0 0.1
2018-Jul-18 14:59N 38°48' W 076°22'1 0.8
2018-Jul-18 13:59N 38°49' W 076°22'0 0.1
2018-Jul-18 12:27N 38°49' W 076°22'1 0.9
2018-Jul-18 11:30N 38°48' W 076°22'2 0.8
2018-Jul-18 09:12N 38°46' W 076°21'0 0.0
2018-Jul-18 02:22N 38°46' W 076°21'0 0.0
2018-Jul-17 23:12N 38°46' W 076°21'0 0.0
2018-Jul-17 22:52N 38°46' W 076°21'1 0.2
2018-Jul-17 15:15N 38°48' W 076°22'0 0.0
2018-Jul-17 13:14N 38°48' W 076°22'0 0.3
2018-Jul-17 11:24N 38°47' W 076°22'1 0.4
2018-Jul-17 07:38N 38°46' W 076°21'0 0.0
2018-Jul-17 07:10N 38°46' W 076°21'0 0.0
2018-Jul-17 01:52N 38°46' W 076°21'2 0.5
2018-Jul-16 21:52N 38°48' W 076°22'0 0.1
2018-Jul-16 20:32N 38°48' W 076°22'0 0.2
2018-Jul-16 18:37N 38°48' W 076°22'0 0.0
2018-Jul-16 18:22N 38°48' W 076°22'0 0.0
2018-Jul-16 12:58N 38°48' W 076°22'0 0.0
2018-Jul-16 12:27N 38°48' W 076°22'1 2.5
2018-Jul-16 12:00N 38°47' W 076°21'0 0.4
2018-Jul-16 11:26N 38°46' W 076°21'0 0.0
2018-Jul-16 11:01N 38°46' W 076°21'0 0.0
2018-Jul-16 10:31N 38°46' W 076°21'0 0.0
2018-Jul-16 10:00N 38°46' W 076°21'0 0.0
2018-Jul-16 09:30N 38°46' W 076°21'0 0.0
2018-Jul-16 09:00N 38°46' W 076°21'0 0.0
2018-Jul-16 08:30N 38°46' W 076°21'0 0.0
2018-Jul-16 08:00N 38°46' W 076°21'0 0.0
2018-Jul-16 07:00N 38°46' W 076°21'0 0.1
2018-Jul-16 06:30N 38°46' W 076°21'0 0.0
2018-Jul-16 05:58N 38°46' W 076°21'0 0.0
2018-Jul-16 04:44N 38°46' W 076°21'0 0.0
2018-Jul-16 04:29N 38°46' W 076°21'0 0.0
2018-Jul-16 03:54N 38°46' W 076°21'0 0.0
2018-Jul-16 02:41N 38°46' W 076°21'0 0.2
2018-Jul-16 02:30N 38°46' W 076°21'0 0.1
2018-Jul-16 01:59N 38°46' W 076°21'0 0.0
2018-Jul-15 15:21N 38°46' W 076°21'0 0.0
2018-Jul-15 11:22N 38°46' W 076°21'0 0.0
2018-Jul-15 10:58N 38°46' W 076°21'0 0.0
2018-Jul-15 10:08N 38°46' W 076°21'0 0.0
2018-Jul-15 09:37N 38°46' W 076°21'0 0.0
2018-Jul-15 09:30N 38°46' W 076°21'0 0.0
2018-Jul-15 09:00N 38°46' W 076°21'0 0.0
2018-Jul-15 07:17N 38°46' W 076°21'0 0.0
2018-Jul-15 06:59N 38°46' W 076°21'0 0.0
2018-Jul-15 06:18N 38°46' W 076°21'0 0.0
2018-Jul-15 05:40N 38°46' W 076°21'0 0.0
2018-Jul-15 05:23N 38°46' W 076°21'0 0.0
2018-Jul-15 04:57N 38°46' W 076°21'0 0.0
2018-Jul-15 03:49N 38°46' W 076°21'0 0.0
2018-Jul-15 03:19N 38°46' W 076°21'4 0.4
2018-Jul-14 16:57N 38°50' W 076°24'2 5.4
2018-Jul-14 16:30N 38°52' W 076°24'3 5.5
2018-Jul-14 16:00N 38°55' W 076°23'3 5.6
2018-Jul-14 15:30N 38°58' W 076°23'8 4.6
2018-Jul-14 13:39N 39°06' W 076°20'1 4.1
2018-Jul-14 13:28N 39°07' W 076°20'2 4.1
2018-Jul-14 12:58N 39°09' W 076°19'2 3.6
2018-Jul-14 12:29N 39°10' W 076°18'2 3.4
2018-Jul-14 12:00N 39°12' W 076°17'2 3.2
2018-Jul-14 11:31N 39°13' W 076°15'2 3.2
2018-Jul-14 11:00N 39°14' W 076°15'2 3.2
2018-Jul-14 10:30N 39°16' W 076°14'2 3.5
2018-Jul-14 10:00N 39°18' W 076°13'2 3.6
2018-Jul-14 09:30N 39°19' W 076°12'2 4.1
2018-Jul-14 08:59N 39°21' W 076°11'3 4.5
2018-Jul-14 08:17N 39°23' W 076°07'1 4.7
2018-Jul-14 07:59N 39°23' W 076°06'2 4.5
2018-Jul-14 07:30N 39°24' W 076°03'2 4.3
2018-Jul-14 07:00N 39°26' W 076°02'2 4.1
2018-Jul-14 06:30N 39°28' W 076°03'2 4.4
2018-Jul-14 06:00N 39°30' W 076°05'2 4.5
2018-Jul-14 05:30N 39°32' W 076°05'1 1.9
2018-Jul-14 05:00N 39°33' W 076°05'0 0.0
2018-Jul-14 04:30N 39°33' W 076°05'1 2.8
2018-Jul-14 04:00N 39°31' W 076°05'3 5.1
2018-Jul-14 03:30N 39°29' W 076°05'3 5.2
2018-Jul-14 03:00N 39°27' W 076°02'3 5.5
2018-Jul-14 02:25N 39°24' W 076°04'4 6.1
2018-Jul-14 01:44N 39°22' W 076°09'2 6.4
2018-Jul-14 01:30N 39°21' W 076°10'18 6.3
2018-Jul-13 22:34N 39°04' W 076°21'3 6.8
2018-Jul-13 22:10N 39°02' W 076°22'1 6.9
2018-Jul-13 22:00N 39°01' W 076°22'3 6.5
2018-Jul-13 21:30N 38°58' W 076°23'3 6.6
2018-Jul-13 21:01N 38°54' W 076°23'3 6.3
2018-Jul-13 20:31N 38°51' W 076°24'3 5.5
2018-Jul-13 20:01N 38°49' W 076°22'2 0.3
2018-Jul-13 13:38N 38°50' W 076°24'1 5.1
2018-Jul-13 13:31N 38°51' W 076°24'2 4.9
2018-Jul-13 13:00N 38°53' W 076°24'2 4.7
2018-Jul-13 12:31N 38°55' W 076°23'2 4.4
2018-Jul-13 12:00N 38°58' W 076°23'2 4.4
2018-Jul-13 11:30N 38°60' W 076°23'2 3.7
2018-Jul-13 11:01N 39°02' W 076°22'2 3.5
2018-Jul-13 10:30N 39°03' W 076°21'2 3.5
2018-Jul-13 10:00N 39°05' W 076°21'2 3.4
2018-Jul-13 09:30N 39°06' W 076°20'2 3.4
2018-Jul-13 09:00N 39°08' W 076°19'2 3.6
2018-Jul-13 08:30N 39°10' W 076°19'3 3.9
2018-Jul-13 07:46N 39°12' W 076°16'1 4.1
2018-Jul-13 07:30N 39°13' W 076°15'2 4.4
2018-Jul-13 07:00N 39°15' W 076°14'2 4.8
2018-Jul-13 06:30N 39°17' W 076°13'3 5.2
2018-Jul-13 05:59N 39°20' W 076°12'7 5.4
2018-Jul-13 04:46N 39°23' W 076°05'2 4.9
2018-Jul-13 04:21N 39°24' W 076°03'2 4.4
2018-Jul-13 04:00N 39°26' W 076°02'2 4.0
2018-Jul-13 03:30N 39°28' W 076°03'2 4.2
2018-Jul-13 03:00N 39°29' W 076°05'2 3.9
2018-Jul-13 02:30N 39°31' W 076°05'2 3.7
2018-Jul-13 02:00N 39°33' W 076°05'0 0.2
2018-Jul-13 01:30N 39°33' W 076°05'0 0.1
2018-Jul-13 01:00N 39°33' W 076°05'0 0.1
2018-Jul-13 00:30N 39°33' W 076°05'0 0.0
2018-Jul-12 23:58N 39°33' W 076°05'0 0.6
2018-Jul-12 23:31N 39°32' W 076°05'3 6.1
2018-Jul-12 23:00N 39°29' W 076°05'3 6.0
2018-Jul-12 22:29N 39°27' W 076°02'25 5.5
2018-Jul-12 18:00N 39°07' W 076°20'3 5.2
2018-Jul-12 17:23N 39°04' W 076°21'2 5.2
2018-Jul-12 16:58N 39°01' W 076°22'2 4.7
2018-Jul-12 16:31N 38°59' W 076°23'3 5.1
2018-Jul-12 16:00N 38°57' W 076°23'2 4.7
2018-Jul-12 15:31N 38°55' W 076°23'2 4.8
2018-Jul-12 15:01N 38°52' W 076°24'5 2.4
2018-Jul-12 13:04N 38°48' W 076°22'0 0.0
2018-Jul-12 13:01N 38°48' W 076°22'0 0.0
2018-Jul-12 12:08N 38°48' W 076°22'2 0.1
2018-Jul-11 17:53N 38°50' W 076°24'2 5.4
2018-Jul-11 17:30N 38°52' W 076°24'3 5.7
2018-Jul-11 17:00N 38°55' W 076°24'3 6.1
2018-Jul-11 16:26N 38°58' W 076°23'3 6.1
2018-Jul-11 15:52N 39°02' W 076°22'5 5.6
2018-Jul-11 15:02N 39°06' W 076°20'0 5.6
2018-Jul-11 15:00N 39°06' W 076°20'3 5.8
2018-Jul-11 14:30N 39°09' W 076°19'7 5.5
2018-Jul-11 13:11N 39°15' W 076°14'1 5.4
2018-Jul-11 12:58N 39°16' W 076°14'3 5.0
2018-Jul-11 12:19N 39°19' W 076°12'2 4.5
2018-Jul-11 11:48N 39°21' W 076°10'2 4.0
2018-Jul-11 11:23N 39°22' W 076°09'2 4.2
2018-Jul-11 10:57N 39°23' W 076°06'2 3.8
2018-Jul-11 10:19N 39°24' W 076°04'1 3.7
2018-Jul-11 10:00N 39°25' W 076°03'2 3.7
2018-Jul-11 09:30N 39°26' W 076°02'2 3.3
2018-Jul-11 09:00N 39°28' W 076°03'2 3.4
2018-Jul-11 08:30N 39°29' W 076°05'2 3.1
2018-Jul-11 08:00N 39°30' W 076°05'2 3.5
2018-Jul-11 07:30N 39°32' W 076°05'1 1.1
2018-Jul-11 07:00N 39°33' W 076°05'0 0.0
2018-Jul-11 06:31N 39°33' W 076°05'2 3.4
2018-Jul-11 06:01N 39°31' W 076°05'2 4.7
2018-Jul-11 05:30N 39°29' W 076°04'3 5.0
2018-Jul-11 05:00N 39°27' W 076°02'3 5.0
2018-Jul-11 04:30N 39°24' W 076°03'2 5.0
2018-Jul-11 04:01N 39°23' W 076°06'2 4.8
2018-Jul-11 03:30N 39°22' W 076°09'5 4.5
2018-Jul-11 02:22N 39°18' W 076°13'2 5.0
2018-Jul-11 02:01N 39°16' W 076°14'7 5.2
2018-Jul-11 00:41N 39°10' W 076°18'6 5.8
2018-Jul-10 23:37N 39°05' W 076°21'1 6.1
2018-Jul-10 23:30N 39°04' W 076°21'3 6.1
2018-Jul-10 22:59N 39°01' W 076°22'3 6.1
2018-Jul-10 22:30N 38°58' W 076°23'3 6.1
2018-Jul-10 22:00N 38°55' W 076°23'3 6.2
2018-Jul-10 21:30N 38°52' W 076°24'8 1.5
2018-Jul-10 16:14N 38°60' W 076°23'2 7.3
2018-Jul-10 16:00N 39°01' W 076°22'4 7.1
2018-Jul-10 15:27N 39°05' W 076°21'3 7.3
2018-Jul-10 15:00N 39°08' W 076°19'6 7.4
2018-Jul-10 14:12N 39°13' W 076°15'4 7.6
2018-Jul-10 13:44N 39°16' W 076°14'2 7.4
2018-Jul-10 13:26N 39°19' W 076°13'  

Dump ship's entire track history